This is the latest recevied weather packets stored in our database for station/object DL3MEB-6. If no packets are shown the sender has not sent any weather packets the latest 10 day(s).
| Time | Temp. | Humidity | Pressure | Rain* | Wind** | Luminosity | Snow |
|---|---|---|---|---|---|---|---|
| 1787906616 | 23.89° C | 74% | 1007.6 hPa | 0 mm | - | - | - |
| 1787905713 | 23.33° C | 77% | 1008.3 hPa | 0 mm | - | - | - |
| 1787903900 | 22.22° C | 81% | 1009.2 hPa | 0 mm | - | - | - |
| 1787902996 | 21.11° C | 84% | 1009 hPa | 0 mm | - | - | - |
| 1787902086 | 20.56° C | 85% | 1009 hPa | 0 mm | - | - | - |
| 1787900277 | 19.44° C | 88% | 1009.1 hPa | 0 mm | - | - | - |
| 1787898460 | 18.89° C | 92% | 1009 hPa | 0 mm | - | - | - |
| 1787897560 | 18.33° C | 93% | 1009.2 hPa | 0 mm | - | - | - |
| 1787896649 | 18.33° C | 94% | 1009.5 hPa | 0 mm | - | - | - |
| 1787895737 | 17.78° C | 93% | 1009.9 hPa | 0 mm | - | - | - |
| 1787894829 | 17.78° C | 92% | 1009.8 hPa | 0 mm | - | - | - |
| 1787893012 | 17.78° C | 92% | 1009.2 hPa | 0 mm | - | - | - |
| 1787892109 | 17.78° C | 92% | 1008.8 hPa | 0 mm | - | - | - |
| 1787891202 | 17.78° C | 91% | 1008.7 hPa | 0 mm | - | - | - |
| 1787889386 | 18.33° C | 90% | 1009.3 hPa | 0 mm | - | - | - |
| 1787888481 | 18.33° C | 90% | 1009.3 hPa | 0 mm | - | - | - |
| 1787887572 | 18.33° C | 90% | 1009.3 hPa | 0 mm | - | - | - |
| 1787886657 | 18.33° C | 89% | 1008.9 hPa | 0 mm | - | - | - |
| 1787885757 | 18.33° C | 89% | 1009.1 hPa | 0 mm | - | - | - |
| 1787883948 | 18.33° C | 88% | 1008.8 hPa | 0 mm | - | - | - |
| 1787882136 | 18.89° C | 86% | 1009.1 hPa | 0 mm | - | - | - |
| 1787881226 | 18.89° C | 86% | 1008.9 hPa | 0 mm | - | - | - |
| 1787880319 | 18.89° C | 85% | 1009 hPa | 0 mm | - | - | - |
| 1787879413 | 18.89° C | 84% | 1009.2 hPa | 0 mm | - | - | - |
| 1787878511 | 19.44° C | 84% | 1009.1 hPa | 0 mm | - | - | - |
* Rain latest hour (hover to see other rain measurements)
** Current wind speed in m/s (hover to see current wind gust speed)